sensor_id;sensor_type;location;lat;lon;timestamp;P1;durP1;ratioP1;P2;durP2;ratioP2
48871;SDS011;36154;51.674;7.824;2023-04-29T00:01:42;2.72;;;2.63;;
48871;SDS011;36154;51.674;7.824;2023-04-29T00:04:07;3.60;;;3.17;;
48871;SDS011;36154;51.674;7.824;2023-04-29T00:06:33;4.60;;;2.75;;
48871;SDS011;36154;51.674;7.824;2023-04-29T00:08:58;4.95;;;2.70;;
48871;SDS011;36154;51.674;7.824;2023-04-29T00:11:23;2.80;;;2.60;;
48871;SDS011;36154;51.674;7.824;2023-04-29T00:13:49;4.78;;;2.67;;
48871;SDS011;36154;51.674;7.824;2023-04-29T00:16:14;7.45;;;2.85;;
48871;SDS011;36154;51.674;7.824;2023-04-29T00:18:39;5.05;;;2.33;;
48871;SDS011;36154;51.674;7.824;2023-04-29T00:21:05;2.67;;;2.47;;
48871;SDS011;36154;51.674;7.824;2023-04-29T00:23:31;2.97;;;2.72;;
48871;SDS011;36154;51.674;7.824;2023-04-29T00:25:59;8.25;;;2.80;;
48871;SDS011;36154;51.674;7.824;2023-04-29T00:28:24;11.10;;;2.53;;
48871;SDS011;36154;51.674;7.824;2023-04-29T00:30:50;8.13;;;2.70;;
48871;SDS011;36154;51.674;7.824;2023-04-29T00:33:15;4.82;;;2.40;;
48871;SDS011;36154;51.674;7.824;2023-04-29T00:35:40;4.15;;;2.33;;
48871;SDS011;36154;51.674;7.824;2023-04-29T00:38:06;3.95;;;2.10;;
48871;SDS011;36154;51.674;7.824;2023-04-29T00:40:31;2.33;;;2.20;;
48871;SDS011;36154;51.674;7.824;2023-04-29T00:42:57;5.38;;;2.25;;
48871;SDS011;36154;51.674;7.824;2023-04-29T00:45:22;4.30;;;2.20;;
48871;SDS011;36154;51.674;7.824;2023-04-29T00:47:48;4.93;;;2.15;;
48871;SDS011;36154;51.674;7.824;2023-04-29T00:50:13;4.78;;;2.35;;
48871;SDS011;36154;51.674;7.824;2023-04-29T00:52:39;3.40;;;2.30;;
48871;SDS011;36154;51.674;7.824;2023-04-29T00:55:05;2.25;;;2.15;;
48871;SDS011;36154;51.674;7.824;2023-04-29T00:57:33;4.00;;;2.40;;
48871;SDS011;36154;51.674;7.824;2023-04-29T00:59:58;3.35;;;2.10;;
48871;SDS011;36154;51.674;7.824;2023-04-29T01:02:24;2.08;;;1.98;;
48871;SDS011;36154;51.674;7.824;2023-04-29T01:04:50;3.30;;;2.47;;
48871;SDS011;36154;51.674;7.824;2023-04-29T01:10:25;2.13;;;2.03;;
48871;SDS011;36154;51.674;7.824;2023-04-29T01:15:37;2.25;;;2.15;;
48871;SDS011;36154;51.674;7.824;2023-04-29T01:18:11;2.00;;;1.90;;
48871;SDS011;36154;51.674;7.824;2023-04-29T01:20:43;2.53;;;2.42;;
48871;SDS011;36154;51.674;7.824;2023-04-29T01:23:09;2.40;;;2.22;;
48871;SDS011;36154;51.674;7.824;2023-04-29T01:25:34;2.53;;;2.35;;
48871;SDS011;36154;51.674;7.824;2023-04-29T01:30:59;2.45;;;2.08;;
48871;SDS011;36154;51.674;7.824;2023-04-29T01:41:41;2.33;;;2.22;;
48871;SDS011;36154;51.674;7.824;2023-04-29T01:44:13;2.40;;;2.30;;
48871;SDS011;36154;51.674;7.824;2023-04-29T01:46:42;2.58;;;2.42;;
48871;SDS011;36154;51.674;7.824;2023-04-29T01:49:08;2.60;;;2.38;;
48871;SDS011;36154;51.674;7.824;2023-04-29T01:51:33;2.78;;;2.58;;
48871;SDS011;36154;51.674;7.824;2023-04-29T01:53:58;2.50;;;2.38;;
48871;SDS011;36154;51.674;7.824;2023-04-29T01:56:24;2.53;;;2.42;;
48871;SDS011;36154;51.674;7.824;2023-04-29T01:58:49;2.30;;;2.13;;
48871;SDS011;36154;51.674;7.824;2023-04-29T02:01:14;2.85;;;2.65;;
48871;SDS011;36154;51.674;7.824;2023-04-29T02:03:39;2.75;;;2.55;;
48871;SDS011;36154;51.674;7.824;2023-04-29T02:06:05;2.95;;;2.38;;
48871;SDS011;36154;51.674;7.824;2023-04-29T02:08:31;2.90;;;2.72;;
48871;SDS011;36154;51.674;7.824;2023-04-29T02:10:57;2.53;;;2.42;;
48871;SDS011;36154;51.674;7.824;2023-04-29T02:13:23;4.07;;;2.45;;
48871;SDS011;36154;51.674;7.824;2023-04-29T02:15:51;3.10;;;2.90;;
48871;SDS011;36154;51.674;7.824;2023-04-29T02:18:16;3.25;;;3.05;;
48871;SDS011;36154;51.674;7.824;2023-04-29T02:20:42;3.20;;;2.90;;
48871;SDS011;36154;51.674;7.824;2023-04-29T02:23:07;2.90;;;2.70;;
48871;SDS011;36154;51.674;7.824;2023-04-29T02:25:33;3.10;;;2.90;;
48871;SDS011;36154;51.674;7.824;2023-04-29T02:27:58;3.25;;;3.05;;
48871;SDS011;36154;51.674;7.824;2023-04-29T02:30:26;3.10;;;2.90;;
48871;SDS011;36154;51.674;7.824;2023-04-29T02:32:51;3.40;;;3.10;;
48871;SDS011;36154;51.674;7.824;2023-04-29T02:35:17;3.58;;;3.35;;
48871;SDS011;36154;51.674;7.824;2023-04-29T02:37:42;3.90;;;3.60;;
48871;SDS011;36154;51.674;7.824;2023-04-29T02:40:08;4.13;;;3.85;;
48871;SDS011;36154;51.674;7.824;2023-04-29T02:42:34;4.78;;;3.35;;
48871;SDS011;36154;51.674;7.824;2023-04-29T02:44:59;3.78;;;3.50;;
48871;SDS011;36154;51.674;7.824;2023-04-29T02:47:25;3.90;;;3.60;;
48871;SDS011;36154;51.674;7.824;2023-04-29T02:49:50;4.18;;;3.88;;
48871;SDS011;36154;51.674;7.824;2023-04-29T02:52:15;4.00;;;3.70;;
48871;SDS011;36154;51.674;7.824;2023-04-29T02:54:43;3.75;;;3.45;;
48871;SDS011;36154;51.674;7.824;2023-04-29T02:57:09;3.90;;;3.63;;
48871;SDS011;36154;51.674;7.824;2023-04-29T02:59:35;3.67;;;3.38;;
48871;SDS011;36154;51.674;7.824;2023-04-29T03:02:00;4.53;;;3.97;;
48871;SDS011;36154;51.674;7.824;2023-04-29T03:04:26;3.85;;;3.60;;
48871;SDS011;36154;51.674;7.824;2023-04-29T03:06:53;4.13;;;3.80;;
48871;SDS011;36154;51.674;7.824;2023-04-29T03:09:20;4.50;;;3.92;;
48871;SDS011;36154;51.674;7.824;2023-04-29T03:11:46;4.28;;;3.97;;
48871;SDS011;36154;51.674;7.824;2023-04-29T03:14:11;4.20;;;3.90;;
48871;SDS011;36154;51.674;7.824;2023-04-29T03:16:36;4.07;;;3.72;;
48871;SDS011;36154;51.674;7.824;2023-04-29T03:19:02;3.85;;;3.55;;
48871;SDS011;36154;51.674;7.824;2023-04-29T03:21:27;3.58;;;3.35;;
48871;SDS011;36154;51.674;7.824;2023-04-29T03:23:55;4.20;;;3.90;;
48871;SDS011;36154;51.674;7.824;2023-04-29T03:26:20;3.60;;;3.40;;
48871;SDS011;36154;51.674;7.824;2023-04-29T03:28:48;3.67;;;3.47;;
48871;SDS011;36154;51.674;7.824;2023-04-29T03:31:13;4.35;;;3.97;;
48871;SDS011;36154;51.674;7.824;2023-04-29T03:33:40;3.55;;;3.30;;
48871;SDS011;36154;51.674;7.824;2023-04-29T03:36:05;3.80;;;3.55;;
48871;SDS011;36154;51.674;7.824;2023-04-29T03:38:32;3.90;;;3.70;;
48871;SDS011;36154;51.674;7.824;2023-04-29T03:40:57;4.00;;;3.67;;
48871;SDS011;36154;51.674;7.824;2023-04-29T03:43:23;4.25;;;3.95;;
48871;SDS011;36154;51.674;7.824;2023-04-29T03:45:48;3.78;;;3.53;;
48871;SDS011;36154;51.674;7.824;2023-04-29T03:48:13;5.15;;;4.00;;
48871;SDS011;36154;51.674;7.824;2023-04-29T03:50:39;3.92;;;3.58;;
48871;SDS011;36154;51.674;7.824;2023-04-29T03:53:04;3.55;;;3.35;;
48871;SDS011;36154;51.674;7.824;2023-04-29T03:55:30;4.00;;;3.70;;
48871;SDS011;36154;51.674;7.824;2023-04-29T03:57:55;3.50;;;3.30;;
48871;SDS011;36154;51.674;7.824;2023-04-29T04:00:20;3.50;;;3.30;;
48871;SDS011;36154;51.674;7.824;2023-04-29T04:02:45;3.78;;;3.47;;
48871;SDS011;36154;51.674;7.824;2023-04-29T04:05:11;3.72;;;3.50;;
48871;SDS011;36154;51.674;7.824;2023-04-29T04:07:36;3.83;;;3.53;;
48871;SDS011;36154;51.674;7.824;2023-04-29T04:10:02;7.40;;;3.63;;
48871;SDS011;36154;51.674;7.824;2023-04-29T04:12:27;3.50;;;3.30;;
48871;SDS011;36154;51.674;7.824;2023-04-29T04:14:52;3.63;;;3.42;;
48871;SDS011;36154;51.674;7.824;2023-04-29T04:17:18;3.90;;;3.60;;
48871;SDS011;36154;51.674;7.824;2023-04-29T04:19:43;3.50;;;3.20;;
48871;SDS011;36154;51.674;7.824;2023-04-29T04:22:08;3.65;;;3.35;;
48871;SDS011;36154;51.674;7.824;2023-04-29T04:24:33;3.78;;;3.58;;
48871;SDS011;36154;51.674;7.824;2023-04-29T04:26:59;3.78;;;3.47;;
48871;SDS011;36154;51.674;7.824;2023-04-29T04:29:24;3.97;;;3.63;;
48871;SDS011;36154;51.674;7.824;2023-04-29T04:31:50;3.47;;;3.28;;
48871;SDS011;36154;51.674;7.824;2023-04-29T04:34:15;3.30;;;3.10;;
48871;SDS011;36154;51.674;7.824;2023-04-29T04:36:40;3.88;;;3.58;;
48871;SDS011;36154;51.674;7.824;2023-04-29T04:39:06;3.47;;;3.20;;
48871;SDS011;36154;51.674;7.824;2023-04-29T04:41:31;3.70;;;3.50;;
48871;SDS011;36154;51.674;7.824;2023-04-29T04:43:57;3.33;;;3.13;;
48871;SDS011;36154;51.674;7.824;2023-04-29T04:46:22;3.63;;;3.22;;
48871;SDS011;36154;51.674;7.824;2023-04-29T04:48:47;3.70;;;3.50;;
48871;SDS011;36154;51.674;7.824;2023-04-29T04:51:13;3.92;;;3.50;;
48871;SDS011;36154;51.674;7.824;2023-04-29T04:53:38;4.00;;;3.45;;
48871;SDS011;36154;51.674;7.824;2023-04-29T04:56:04;3.17;;;2.97;;
48871;SDS011;36154;51.674;7.824;2023-04-29T04:58:32;3.28;;;2.97;;
48871;SDS011;36154;51.674;7.824;2023-04-29T05:00:58;3.70;;;3.22;;
48871;SDS011;36154;51.674;7.824;2023-04-29T05:03:24;3.67;;;3.38;;
48871;SDS011;36154;51.674;7.824;2023-04-29T05:05:56;3.75;;;3.45;;
48871;SDS011;36154;51.674;7.824;2023-04-29T05:08:22;3.97;;;3.67;;
48871;SDS011;36154;51.674;7.824;2023-04-29T05:10:47;3.33;;;3.10;;
48871;SDS011;36154;51.674;7.824;2023-04-29T05:13:12;3.45;;;3.20;;
48871;SDS011;36154;51.674;7.824;2023-04-29T05:15:38;3.13;;;2.92;;
48871;SDS011;36154;51.674;7.824;2023-04-29T05:18:03;3.13;;;2.92;;
48871;SDS011;36154;51.674;7.824;2023-04-29T05:20:28;3.03;;;2.83;;
48871;SDS011;36154;51.674;7.824;2023-04-29T05:22:54;3.40;;;3.20;;
48871;SDS011;36154;51.674;7.824;2023-04-29T05:25:19;3.65;;;3.35;;
48871;SDS011;36154;51.674;7.824;2023-04-29T05:27:44;3.40;;;3.20;;
48871;SDS011;36154;51.674;7.824;2023-04-29T05:30:10;3.20;;;3.00;;
48871;SDS011;36154;51.674;7.824;2023-04-29T05:32:36;3.60;;;3.30;;
48871;SDS011;36154;51.674;7.824;2023-04-29T05:35:01;3.97;;;3.58;;
48871;SDS011;36154;51.674;7.824;2023-04-29T05:37:26;3.67;;;3.38;;
48871;SDS011;36154;51.674;7.824;2023-04-29T05:39:55;3.00;;;2.80;;
48871;SDS011;36154;51.674;7.824;2023-04-29T05:42:20;3.42;;;3.17;;
48871;SDS011;36154;51.674;7.824;2023-04-29T05:44:46;3.67;;;3.33;;
48871;SDS011;36154;51.674;7.824;2023-04-29T05:47:11;3.22;;;3.03;;
48871;SDS011;36154;51.674;7.824;2023-04-29T05:49:36;3.72;;;3.42;;
48871;SDS011;36154;51.674;7.824;2023-04-29T05:52:03;3.88;;;3.40;;
48871;SDS011;36154;51.674;7.824;2023-04-29T05:54:30;6.30;;;2.78;;
48871;SDS011;36154;51.674;7.824;2023-04-29T05:56:59;3.50;;;3.30;;
48871;SDS011;36154;51.674;7.824;2023-04-29T05:59:26;3.60;;;3.30;;
48871;SDS011;36154;51.674;7.824;2023-04-29T06:01:58;4.07;;;3.75;;
48871;SDS011;36154;51.674;7.824;2023-04-29T06:04:26;3.47;;;3.28;;
48871;SDS011;36154;51.674;7.824;2023-04-29T06:06:54;3.53;;;3.30;;
48871;SDS011;36154;51.674;7.824;2023-04-29T06:09:21;3.60;;;3.40;;
48871;SDS011;36154;51.674;7.824;2023-04-29T06:11:49;3.92;;;3.53;;
48871;SDS011;36154;51.674;7.824;2023-04-29T06:14:14;3.65;;;3.28;;
48871;SDS011;36154;51.674;7.824;2023-04-29T06:16:40;3.75;;;3.53;;
48871;SDS011;36154;51.674;7.824;2023-04-29T06:19:05;3.55;;;3.35;;
48871;SDS011;36154;51.674;7.824;2023-04-29T06:21:30;4.00;;;3.70;;
48871;SDS011;36154;51.674;7.824;2023-04-29T06:23:56;3.25;;;3.15;;
48871;SDS011;36154;51.674;7.824;2023-04-29T06:26:21;3.38;;;3.17;;
48871;SDS011;36154;51.674;7.824;2023-04-29T06:28:47;3.30;;;3.10;;
48871;SDS011;36154;51.674;7.824;2023-04-29T06:31:12;3.38;;;3.17;;
48871;SDS011;36154;51.674;7.824;2023-04-29T06:33:38;3.30;;;3.10;;
48871;SDS011;36154;51.674;7.824;2023-04-29T06:36:03;3.53;;;3.22;;
48871;SDS011;36154;51.674;7.824;2023-04-29T06:38:29;4.35;;;3.75;;
48871;SDS011;36154;51.674;7.824;2023-04-29T06:40:54;3.60;;;3.35;;
48871;SDS011;36154;51.674;7.824;2023-04-29T06:43:24;3.78;;;3.47;;
48871;SDS011;36154;51.674;7.824;2023-04-29T06:45:50;3.20;;;3.00;;
48871;SDS011;36154;51.674;7.824;2023-04-29T06:48:16;4.20;;;3.40;;
48871;SDS011;36154;51.674;7.824;2023-04-29T06:50:47;3.80;;;3.50;;
48871;SDS011;36154;51.674;7.824;2023-04-29T06:53:13;3.53;;;3.33;;
48871;SDS011;36154;51.674;7.824;2023-04-29T06:55:39;3.47;;;3.20;;
48871;SDS011;36154;51.674;7.824;2023-04-29T06:58:04;3.75;;;3.55;;
48871;SDS011;36154;51.674;7.824;2023-04-29T07:00:29;3.58;;;3.22;;
48871;SDS011;36154;51.674;7.824;2023-04-29T07:02:55;3.00;;;2.80;;
48871;SDS011;36154;51.674;7.824;2023-04-29T07:05:21;2.90;;;2.70;;
48871;SDS011;36154;51.674;7.824;2023-04-29T07:07:46;3.50;;;3.17;;
48871;SDS011;36154;51.674;7.824;2023-04-29T07:10:11;3.47;;;3.15;;
48871;SDS011;36154;51.674;7.824;2023-04-29T07:12:37;3.35;;;3.15;;
48871;SDS011;36154;51.674;7.824;2023-04-29T07:15:02;3.13;;;2.90;;
48871;SDS011;36154;51.674;7.824;2023-04-29T07:17:30;3.40;;;3.20;;
48871;SDS011;36154;51.674;7.824;2023-04-29T07:19:55;3.35;;;2.88;;
48871;SDS011;36154;51.674;7.824;2023-04-29T07:22:21;3.28;;;2.72;;
48871;SDS011;36154;51.674;7.824;2023-04-29T07:24:46;3.58;;;3.33;;
48871;SDS011;36154;51.674;7.824;2023-04-29T07:27:11;2.83;;;2.67;;
48871;SDS011;36154;51.674;7.824;2023-04-29T07:29:37;3.45;;;2.97;;
48871;SDS011;36154;51.674;7.824;2023-04-29T07:32:02;2.70;;;2.60;;
48871;SDS011;36154;51.674;7.824;2023-04-29T07:34:28;3.20;;;3.00;;
48871;SDS011;36154;51.674;7.824;2023-04-29T07:36:53;2.95;;;2.75;;
48871;SDS011;36154;51.674;7.824;2023-04-29T07:39:18;3.10;;;2.90;;
48871;SDS011;36154;51.674;7.824;2023-04-29T07:41:44;3.60;;;3.25;;
48871;SDS011;36154;51.674;7.824;2023-04-29T07:44:10;4.43;;;3.50;;
48871;SDS011;36154;51.674;7.824;2023-04-29T07:46:35;4.88;;;4.57;;
48871;SDS011;36154;51.674;7.824;2023-04-29T07:49:00;5.63;;;4.70;;
48871;SDS011;36154;51.674;7.824;2023-04-29T07:51:26;5.07;;;4.68;;
48871;SDS011;36154;51.674;7.824;2023-04-29T07:53:52;5.28;;;4.88;;
48871;SDS011;36154;51.674;7.824;2023-04-29T07:56:18;8.20;;;5.07;;
48871;SDS011;36154;51.674;7.824;2023-04-29T07:58:44;7.47;;;4.63;;
48871;SDS011;36154;51.674;7.824;2023-04-29T08:01:09;3.90;;;3.60;;
48871;SDS011;36154;51.674;7.824;2023-04-29T08:03:35;5.28;;;4.78;;
48871;SDS011;36154;51.674;7.824;2023-04-29T08:06:02;5.40;;;4.90;;
48871;SDS011;36154;51.674;7.824;2023-04-29T08:08:29;5.35;;;4.45;;
48871;SDS011;36154;51.674;7.824;2023-04-29T08:10:55;6.47;;;3.70;;
48871;SDS011;36154;51.674;7.824;2023-04-29T08:13:23;5.30;;;4.80;;
48871;SDS011;36154;51.674;7.824;2023-04-29T08:15:49;7.45;;;5.40;;
48871;SDS011;36154;51.674;7.824;2023-04-29T08:18:14;5.35;;;4.85;;
48871;SDS011;36154;51.674;7.824;2023-04-29T08:20:40;7.22;;;5.30;;
48871;SDS011;36154;51.674;7.824;2023-04-29T08:23:05;4.78;;;4.38;;
48871;SDS011;36154;51.674;7.824;2023-04-29T08:25:30;4.60;;;4.20;;
48871;SDS011;36154;51.674;7.824;2023-04-29T08:27:56;4.50;;;4.10;;
48871;SDS011;36154;51.674;7.824;2023-04-29T08:30:21;3.97;;;3.65;;
48871;SDS011;36154;51.674;7.824;2023-04-29T08:32:47;4.13;;;3.83;;
48871;SDS011;36154;51.674;7.824;2023-04-29T08:35:12;5.07;;;3.67;;
48871;SDS011;36154;51.674;7.824;2023-04-29T08:37:38;4.15;;;3.75;;
48871;SDS011;36154;51.674;7.824;2023-04-29T08:40:05;7.28;;;6.45;;
48871;SDS011;36154;51.674;7.824;2023-04-29T08:42:34;8.50;;;6.13;;
48871;SDS011;36154;51.674;7.824;2023-04-29T08:45:01;7.85;;;6.47;;
48871;SDS011;36154;51.674;7.824;2023-04-29T08:47:31;6.85;;;6.15;;
48871;SDS011;36154;51.674;7.824;2023-04-29T08:50:01;6.60;;;5.90;;
48871;SDS011;36154;51.674;7.824;2023-04-29T08:52:28;7.00;;;6.30;;
48871;SDS011;36154;51.674;7.824;2023-04-29T08:54:56;7.90;;;5.05;;
48871;SDS011;36154;51.674;7.824;2023-04-29T08:57:22;6.63;;;5.10;;
48871;SDS011;36154;51.674;7.824;2023-04-29T08:59:50;5.43;;;4.90;;
48871;SDS011;36154;51.674;7.824;2023-04-29T09:02:15;4.90;;;4.40;;
48871;SDS011;36154;51.674;7.824;2023-04-29T09:04:59;5.00;;;3.97;;
48871;SDS011;36154;51.674;7.824;2023-04-29T09:07:29;5.75;;;5.10;;
48871;SDS011;36154;51.674;7.824;2023-04-29T09:09:56;6.10;;;5.60;;
48871;SDS011;36154;51.674;7.824;2023-04-29T09:12:23;6.22;;;5.57;;
48871;SDS011;36154;51.674;7.824;2023-04-29T09:14:48;6.00;;;5.50;;
48871;SDS011;36154;51.674;7.824;2023-04-29T09:17:13;6.68;;;5.90;;
48871;SDS011;36154;51.674;7.824;2023-04-29T09:19:40;7.55;;;6.75;;
48871;SDS011;36154;51.674;7.824;2023-04-29T09:22:08;7.05;;;6.35;;
48871;SDS011;36154;51.674;7.824;2023-04-29T09:24:33;7.00;;;6.30;;
48871;SDS011;36154;51.674;7.824;2023-04-29T09:26:59;9.02;;;7.15;;
48871;SDS011;36154;51.674;7.824;2023-04-29T09:29:25;7.05;;;5.65;;
48871;SDS011;36154;51.674;7.824;2023-04-29T09:31:51;5.32;;;4.95;;
48871;SDS011;36154;51.674;7.824;2023-04-29T09:34:29;5.28;;;4.88;;
48871;SDS011;36154;51.674;7.824;2023-04-29T09:37:04;18.08;;;14.38;;
48871;SDS011;36154;51.674;7.824;2023-04-29T09:39:48;19.95;;;17.52;;
48871;SDS011;36154;51.674;7.824;2023-04-29T09:42:13;23.30;;;18.98;;
48871;SDS011;36154;51.674;7.824;2023-04-29T09:44:40;25.23;;;19.65;;
48871;SDS011;36154;51.674;7.824;2023-04-29T09:47:07;23.17;;;18.40;;
48871;SDS011;36154;51.674;7.824;2023-04-29T09:49:37;20.20;;;17.48;;
48871;SDS011;36154;51.674;7.824;2023-04-29T09:52:05;18.40;;;15.70;;
48871;SDS011;36154;51.674;7.824;2023-04-29T09:54:35;18.85;;;15.23;;
48871;SDS011;36154;51.674;7.824;2023-04-29T09:57:02;16.38;;;13.90;;
48871;SDS011;36154;51.674;7.824;2023-04-29T09:59:30;14.55;;;13.02;;
48871;SDS011;36154;51.674;7.824;2023-04-29T10:01:57;15.38;;;13.23;;
48871;SDS011;36154;51.674;7.824;2023-04-29T10:04:23;15.23;;;12.90;;
48871;SDS011;36154;51.674;7.824;2023-04-29T10:06:51;14.23;;;12.30;;
48871;SDS011;36154;51.674;7.824;2023-04-29T10:09:18;15.63;;;12.00;;
48871;SDS011;36154;51.674;7.824;2023-04-29T10:11:45;13.32;;;10.75;;
48871;SDS011;36154;51.674;7.824;2023-04-29T10:14:15;12.73;;;11.13;;
48871;SDS011;36154;51.674;7.824;2023-04-29T10:19:37;10.85;;;9.50;;
48871;SDS011;36154;51.674;7.824;2023-04-29T10:22:07;10.95;;;9.00;;
48871;SDS011;36154;51.674;7.824;2023-04-29T10:24:36;11.13;;;9.98;;
48871;SDS011;36154;51.674;7.824;2023-04-29T10:27:05;9.40;;;8.38;;
48871;SDS011;36154;51.674;7.824;2023-04-29T10:29:31;9.45;;;8.65;;
48871;SDS011;36154;51.674;7.824;2023-04-29T10:31:59;8.57;;;7.75;;
48871;SDS011;36154;51.674;7.824;2023-04-29T10:34:25;8.20;;;7.30;;
48871;SDS011;36154;51.674;7.824;2023-04-29T10:36:53;8.15;;;7.35;;
48871;SDS011;36154;51.674;7.824;2023-04-29T10:39:21;9.10;;;7.50;;
48871;SDS011;36154;51.674;7.824;2023-04-29T10:41:56;8.25;;;7.53;;
48871;SDS011;36154;51.674;7.824;2023-04-29T10:44:21;7.88;;;7.03;;
48871;SDS011;36154;51.674;7.824;2023-04-29T10:46:48;7.15;;;6.45;;
48871;SDS011;36154;51.674;7.824;2023-04-29T10:49:13;7.28;;;6.68;;
48871;SDS011;36154;51.674;7.824;2023-04-29T10:51:40;6.72;;;6.13;;
48871;SDS011;36154;51.674;7.824;2023-04-29T10:54:16;6.97;;;6.38;;
48871;SDS011;36154;51.674;7.824;2023-04-29T10:56:48;6.30;;;5.80;;
48871;SDS011;36154;51.674;7.824;2023-04-29T10:59:15;6.47;;;5.88;;
48871;SDS011;36154;51.674;7.824;2023-04-29T11:01:48;6.20;;;5.63;;
48871;SDS011;36154;51.674;7.824;2023-04-29T11:04:15;5.75;;;5.35;;
48871;SDS011;36154;51.674;7.824;2023-04-29T11:06:46;5.93;;;5.40;;
48871;SDS011;36154;51.674;7.824;2023-04-29T11:09:26;5.82;;;5.32;;
48871;SDS011;36154;51.674;7.824;2023-04-29T11:14:26;5.25;;;4.85;;
48871;SDS011;36154;51.674;7.824;2023-04-29T11:17:07;5.10;;;4.80;;
48871;SDS011;36154;51.674;7.824;2023-04-29T11:19:49;4.78;;;4.47;;
48871;SDS011;36154;51.674;7.824;2023-04-29T11:27:21;5.07;;;4.78;;
48871;SDS011;36154;51.674;7.824;2023-04-29T11:29:52;5.35;;;4.95;;
48871;SDS011;36154;51.674;7.824;2023-04-29T11:32:28;5.53;;;5.13;;
48871;SDS011;36154;51.674;7.824;2023-04-29T11:35:11;4.80;;;4.50;;
48871;SDS011;36154;51.674;7.824;2023-04-29T11:37:39;5.20;;;4.80;;
48871;SDS011;36154;51.674;7.824;2023-04-29T11:40:05;5.03;;;4.63;;
48871;SDS011;36154;51.674;7.824;2023-04-29T11:42:35;5.20;;;4.80;;
48871;SDS011;36154;51.674;7.824;2023-04-29T11:45:04;4.85;;;4.55;;
48871;SDS011;36154;51.674;7.824;2023-04-29T11:47:30;4.75;;;4.35;;
48871;SDS011;36154;51.674;7.824;2023-04-29T11:50:06;5.40;;;5.05;;
48871;SDS011;36154;51.674;7.824;2023-04-29T11:52:35;5.18;;;4.78;;
48871;SDS011;36154;51.674;7.824;2023-04-29T11:55:02;4.80;;;4.50;;
48871;SDS011;36154;51.674;7.824;2023-04-29T11:57:28;4.97;;;4.68;;
48871;SDS011;36154;51.674;7.824;2023-04-29T11:59:54;5.40;;;4.88;;
48871;SDS011;36154;51.674;7.824;2023-04-29T12:02:22;5.18;;;4.78;;
48871;SDS011;36154;51.674;7.824;2023-04-29T12:04:47;4.68;;;4.38;;
48871;SDS011;36154;51.674;7.824;2023-04-29T12:07:13;5.40;;;4.90;;
48871;SDS011;36154;51.674;7.824;2023-04-29T12:09:44;4.85;;;4.50;;
48871;SDS011;36154;51.674;7.824;2023-04-29T12:12:11;4.80;;;4.50;;
48871;SDS011;36154;51.674;7.824;2023-04-29T12:14:37;5.80;;;5.30;;
48871;SDS011;36154;51.674;7.824;2023-04-29T12:17:04;4.70;;;4.40;;
48871;SDS011;36154;51.674;7.824;2023-04-29T12:19:29;4.70;;;4.32;;
48871;SDS011;36154;51.674;7.824;2023-04-29T12:21:59;4.30;;;4.07;;
48871;SDS011;36154;51.674;7.824;2023-04-29T12:24:24;4.63;;;4.32;;
48871;SDS011;36154;51.674;7.824;2023-04-29T12:26:51;4.53;;;4.22;;
48871;SDS011;36154;51.674;7.824;2023-04-29T12:29:19;4.00;;;3.80;;
48871;SDS011;36154;51.674;7.824;2023-04-29T12:31:46;15.20;;;4.70;;
48871;SDS011;36154;51.674;7.824;2023-04-29T12:34:15;31.00;;;5.20;;
48871;SDS011;36154;51.674;7.824;2023-04-29T12:36:40;9.10;;;4.70;;
48871;SDS011;36154;51.674;7.824;2023-04-29T12:39:06;10.07;;;4.45;;
48871;SDS011;36154;51.674;7.824;2023-04-29T12:41:43;12.35;;;4.80;;
48871;SDS011;36154;51.674;7.824;2023-04-29T12:44:09;7.05;;;5.10;;
48871;SDS011;36154;51.674;7.824;2023-04-29T12:46:35;6.22;;;4.75;;
48871;SDS011;36154;51.674;7.824;2023-04-29T12:49:02;6.43;;;5.03;;
48871;SDS011;36154;51.674;7.824;2023-04-29T12:51:31;7.60;;;4.70;;
48871;SDS011;36154;51.674;7.824;2023-04-29T12:54:01;5.25;;;4.60;;
48871;SDS011;36154;51.674;7.824;2023-04-29T12:56:31;5.15;;;4.57;;
48871;SDS011;36154;51.674;7.824;2023-04-29T12:59:05;8.02;;;4.90;;
48871;SDS011;36154;51.674;7.824;2023-04-29T13:03:48;3.65;;;3.40;;
48871;SDS011;36154;51.674;7.824;2023-04-29T13:06:15;4.18;;;3.88;;
48871;SDS011;36154;51.674;7.824;2023-04-29T13:08:41;4.70;;;4.32;;
48871;SDS011;36154;51.674;7.824;2023-04-29T13:11:07;3.60;;;3.30;;
48871;SDS011;36154;51.674;7.824;2023-04-29T13:13:32;4.78;;;4.38;;
48871;SDS011;36154;51.674;7.824;2023-04-29T13:15:58;4.20;;;3.90;;
48871;SDS011;36154;51.674;7.824;2023-04-29T13:18:24;4.32;;;4.03;;
48871;SDS011;36154;51.674;7.824;2023-04-29T13:20:50;4.00;;;3.67;;
48871;SDS011;36154;51.674;7.824;2023-04-29T13:23:15;4.50;;;4.10;;
48871;SDS011;36154;51.674;7.824;2023-04-29T13:25:40;4.13;;;3.85;;
48871;SDS011;36154;51.674;7.824;2023-04-29T13:28:05;4.20;;;3.90;;
48871;SDS011;36154;51.674;7.824;2023-04-29T13:30:31;4.07;;;3.80;;
48871;SDS011;36154;51.674;7.824;2023-04-29T13:32:56;4.80;;;4.00;;
48871;SDS011;36154;51.674;7.824;2023-04-29T13:35:22;3.95;;;3.65;;
48871;SDS011;36154;51.674;7.824;2023-04-29T13:37:47;3.80;;;3.50;;
48871;SDS011;36154;51.674;7.824;2023-04-29T13:40:13;3.33;;;3.13;;
48871;SDS011;36154;51.674;7.824;2023-04-29T13:42:38;3.80;;;3.50;;
48871;SDS011;36154;51.674;7.824;2023-04-29T13:45:03;3.38;;;3.17;;
48871;SDS011;36154;51.674;7.824;2023-04-29T13:47:29;3.80;;;3.58;;
48871;SDS011;36154;51.674;7.824;2023-04-29T13:49:54;3.35;;;3.13;;
48871;SDS011;36154;51.674;7.824;2023-04-29T13:52:20;3.25;;;3.05;;
48871;SDS011;36154;51.674;7.824;2023-04-29T13:54:45;3.20;;;3.00;;
48871;SDS011;36154;51.674;7.824;2023-04-29T13:57:11;3.50;;;3.30;;
48871;SDS011;36154;51.674;7.824;2023-04-29T13:59:38;3.63;;;3.42;;
48871;SDS011;36154;51.674;7.824;2023-04-29T14:02:04;3.70;;;3.50;;
48871;SDS011;36154;51.674;7.824;2023-04-29T14:04:29;3.05;;;2.78;;
48871;SDS011;36154;51.674;7.824;2023-04-29T14:06:56;3.28;;;3.08;;
48871;SDS011;36154;51.674;7.824;2023-04-29T14:09:21;5.00;;;2.97;;
48871;SDS011;36154;51.674;7.824;2023-04-29T14:11:48;3.13;;;2.92;;
48871;SDS011;36154;51.674;7.824;2023-04-29T14:14:14;3.42;;;3.22;;
48871;SDS011;36154;51.674;7.824;2023-04-29T14:16:39;3.10;;;2.90;;
48871;SDS011;36154;51.674;7.824;2023-04-29T14:19:05;3.17;;;2.97;;
48871;SDS011;36154;51.674;7.824;2023-04-29T14:21:31;3.15;;;2.55;;
48871;SDS011;36154;51.674;7.824;2023-04-29T14:23:57;2.78;;;2.63;;
48871;SDS011;36154;51.674;7.824;2023-04-29T14:26:23;2.80;;;2.55;;
48871;SDS011;36154;51.674;7.824;2023-04-29T14:28:49;3.10;;;2.78;;
48871;SDS011;36154;51.674;7.824;2023-04-29T14:31:21;2.30;;;2.20;;
48871;SDS011;36154;51.674;7.824;2023-04-29T14:33:47;2.95;;;2.13;;
48871;SDS011;36154;51.674;7.824;2023-04-29T14:36:15;2.47;;;2.38;;
48871;SDS011;36154;51.674;7.824;2023-04-29T14:38:40;1.98;;;1.88;;
48871;SDS011;36154;51.674;7.824;2023-04-29T14:41:05;2.45;;;2.30;;
48871;SDS011;36154;51.674;7.824;2023-04-29T14:43:31;2.25;;;2.15;;
48871;SDS011;36154;51.674;7.824;2023-04-29T14:45:56;2.00;;;1.90;;
48871;SDS011;36154;51.674;7.824;2023-04-29T14:48:21;2.20;;;2.10;;
48871;SDS011;36154;51.674;7.824;2023-04-29T14:50:46;6.10;;;2.58;;
48871;SDS011;36154;51.674;7.824;2023-04-29T14:53:12;2.20;;;2.10;;
48871;SDS011;36154;51.674;7.824;2023-04-29T14:55:37;2.33;;;2.20;;
48871;SDS011;36154;51.674;7.824;2023-04-29T14:58:02;1.98;;;1.85;;
48871;SDS011;36154;51.674;7.824;2023-04-29T15:00:28;2.20;;;2.10;;
48871;SDS011;36154;51.674;7.824;2023-04-29T15:02:54;2.72;;;2.53;;
48871;SDS011;36154;51.674;7.824;2023-04-29T15:05:21;2.60;;;2.40;;
48871;SDS011;36154;51.674;7.824;2023-04-29T15:07:46;2.30;;;2.20;;
48871;SDS011;36154;51.674;7.824;2023-04-29T15:10:11;2.80;;;2.60;;
48871;SDS011;36154;51.674;7.824;2023-04-29T15:12:36;2.40;;;2.30;;